Time;durP1;ratioP1;P1;durP2;ratioP2;P2;SDS_P1;SDS_P2;PMS_P1;PMS_P2;Temp;Humidity;BMP_temperature;BMP_pressure;BME280_temperature;BME280_humidity;BME280_pressure;Samples;Min_cycle;Max_cycle;Signal;HPM_P1;HPM_P2
2022/10/26 00:00:03;;;;;;;12.05;4.18;;;10.00;99.90;;;;;;4958156;28;20085;-80
2022/10/26 00:02:29;;;;;;;7.18;4.07;;;10.00;99.90;;;;;;4973839;28;20039;-80
2022/10/26 00:04:55;;;;;;;8.50;3.67;;;10.30;99.90;;;;;;4989232;28;20512;-80
2022/10/26 00:07:20;;;;;;;9.73;4.32;;;10.10;99.90;;;;;;4974099;28;20098;-80
2022/10/26 00:09:46;;;;;;;9.55;4.40;;;10.20;99.90;;;;;;4972285;28;20042;-80
2022/10/26 00:12:12;;;;;;;7.65;3.90;;;10.00;99.90;;;;;;4973775;28;20482;-80
2022/10/26 00:14:37;;;;;;;9.82;4.25;;;10.00;99.90;;;;;;4954629;29;20047;-80
2022/10/26 00:17:03;;;;;;;7.93;4.32;;;10.00;99.90;;;;;;4956554;28;20172;-81
2022/10/26 00:19:32;;;;;;;8.70;4.03;;;10.00;99.90;;;;;;4977770;28;20067;-81
2022/10/26 00:21:58;;;;;;;8.68;4.38;;;10.00;99.90;;;;;;4972302;28;20043;-81
2022/10/26 00:24:23;;;;;;;7.80;4.82;;;10.00;99.90;;;;;;4957669;28;20035;-81
2022/10/26 00:26:49;;;;;;;7.18;3.33;;;9.90;99.90;;;;;;4957094;28;20481;-81
2022/10/26 00:29:15;;;;;;;7.07;3.70;;;10.00;99.90;;;;;;4956575;28;20047;-81
2022/10/26 00:31:41;;;;;;;10.00;4.68;;;9.90;99.90;;;;;;4961389;28;20126;-81
2022/10/26 00:34:10;;;;;;;9.15;4.30;;;9.90;99.90;;;;;;4976815;28;20122;-81
2022/10/26 00:36:36;;;;;;;9.68;4.10;;;9.90;99.90;;;;;;5009141;28;20121;-81
2022/10/26 00:39:02;;;;;;;8.60;4.15;;;9.90;99.90;;;;;;4977008;28;20119;-81
2022/10/26 00:41:31;;;;;;;7.32;3.95;;;9.90;99.90;;;;;;5008937;28;21769;-81
2022/10/26 00:43:57;;;;;;;10.85;4.25;;;9.90;99.90;;;;;;4959926;28;20039;-81
2022/10/26 00:46:31;;;;;;;8.07;3.83;;;9.80;99.90;;;;;;4976359;28;20250;-81
2022/10/26 00:49:03;;;;;;;16.27;4.72;;;9.80;99.90;;;;;;5008170;28;20039;-81
2022/10/26 00:51:43;;;;;;;8.27;4.15;;;9.70;99.90;;;;;;5009148;28;20043;-81
2022/10/26 00:54:17;;;;;;;8.35;3.90;;;9.70;99.90;;;;;;5010096;28;20038;-81
2022/10/26 00:56:44;;;;;;;6.80;3.70;;;9.70;99.90;;;;;;4961339;28;20053;-81
2022/10/26 00:59:12;;;;;;;7.85;4.35;;;9.60;99.90;;;;;;5009695;28;20244;-81
2022/10/26 01:01:42;;;;;;;8.68;3.75;;;9.60;99.90;;;;;;5009408;28;20080;-81
2022/10/26 01:04:08;;;;;;;8.60;4.20;;;9.50;99.90;;;;;;4961303;28;20477;-81
2022/10/26 01:06:36;;;;;;;8.55;4.32;;;9.50;99.90;;;;;;5009703;28;20039;-81
2022/10/26 01:09:03;;;;;;;9.95;4.60;;;9.50;99.90;;;;;;4960314;28;20039;-81
2022/10/26 01:11:29;;;;;;;8.90;3.88;;;9.50;99.90;;;;;;4990466;28;20153;-81
2022/10/26 01:13:57;;;;;;;8.48;4.40;;;9.40;99.90;;;;;;4980681;28;20506;-81
2022/10/26 01:16:40;;;;;;;7.85;4.45;;;9.40;99.90;;;;;;4993137;28;20511;-81
2022/10/26 01:19:41;;;;;;;9.98;3.80;;;9.40;99.90;;;;;;4960480;28;20121;-81
2022/10/26 01:22:13;;;;;;;8.02;3.45;;;9.30;99.90;;;;;;4973643;28;20077;-81
2022/10/26 01:25:02;;;;;;;8.35;4.07;;;9.30;99.90;;;;;;4976906;28;20485;-78
2022/10/26 01:27:41;;;;;;;9.40;4.47;;;9.20;99.90;;;;;;4960005;28;20081;-78
2022/10/26 01:30:19;;;;;;;7.65;4.00;;;9.20;99.90;;;;;;5024010;28;20055;-78
2022/10/26 01:32:56;;;;;;;7.47;3.42;;;9.20;99.90;;;;;;4957020;28;20418;-78
2022/10/26 01:35:45;;;;;;;8.02;4.45;;;9.20;99.90;;;;;;5008605;28;20053;-79
2022/10/26 01:38:33;;;;;;;11.50;4.57;;;9.20;99.90;;;;;;5008993;28;20074;-79
2022/10/26 01:41:06;;;;;;;9.00;3.72;;;9.20;99.90;;;;;;4972366;28;20378;-77
2022/10/26 01:43:35;;;;;;;8.38;3.88;;;9.20;99.90;;;;;;4996375;28;20042;-77
2022/10/26 01:46:05;;;;;;;11.15;4.10;;;9.10;99.90;;;;;;5006197;28;20031;-77
2022/10/26 01:48:33;;;;;;;9.55;3.75;;;9.10;99.90;;;;;;4992051;28;20058;-77
2022/10/26 01:51:00;;;;;;;8.00;3.78;;;9.10;99.90;;;;;;4993540;28;20393;-77
2022/10/26 01:53:27;;;;;;;6.88;3.42;;;9.10;99.90;;;;;;4975537;28;20440;-77
2022/10/26 01:55:54;;;;;;;6.45;3.47;;;9.00;99.90;;;;;;4991963;28;20047;-77
2022/10/26 01:58:41;;;;;;;6.35;3.15;;;9.00;99.90;;;;;;4992848;28;20043;-78
2022/10/26 02:01:13;;;;;;;8.85;3.65;;;9.00;99.90;;;;;;4956808;28;20039;-77
2022/10/26 02:04:00;;;;;;;7.53;3.95;;;9.00;99.90;;;;;;4970053;28;20039;-78
2022/10/26 02:06:57;;;;;;;7.80;4.05;;;9.00;99.90;;;;;;4975934;28;20097;-78
2022/10/26 02:09:33;;;;;;;10.27;3.67;;;8.90;99.90;;;;;;4989401;28;20474;-78
2022/10/26 02:12:01;;;;;;;;;;;8.90;99.90;;;;;;4973851;28;20043;-78
2022/10/26 02:14:57;;;;;;;8.73;4.38;;;9.00;99.90;;;;;;4988795;28;19941;-77
2022/10/26 02:17:28;;;;;;;13.02;4.53;;;9.00;99.90;;;;;;4993261;28;20054;-77
2022/10/26 02:20:07;;;;;;;8.45;4.18;;;9.00;99.90;;;;;;4955775;28;20035;-78
2022/10/26 02:22:38;;;;;;;7.43;4.15;;;9.10;99.90;;;;;;5003543;28;20344;-77
2022/10/26 02:25:09;;;;;;;7.20;4.15;;;9.10;99.90;;;;;;4972793;28;20039;-77
2022/10/26 02:27:41;;;;;;;8.23;3.92;;;9.10;99.90;;;;;;5005324;28;20496;-78
2022/10/26 02:30:09;;;;;;;9.88;4.38;;;9.10;99.90;;;;;;5001817;28;20077;-78
2022/10/26 02:32:39;;;;;;;10.02;4.85;;;9.10;99.90;;;;;;5008341;28;20125;-78
2022/10/26 02:35:05;;;;;;;12.70;4.70;;;9.10;99.90;;;;;;5008628;28;20042;-78
2022/10/26 02:37:34;;;;;;;6.70;3.88;;;9.10;99.90;;;;;;4966882;28;20043;-78
2022/10/26 02:40:05;;;;;;;7.97;4.03;;;9.10;99.90;;;;;;4956575;28;20070;-78
2022/10/26 02:42:32;;;;;;;8.10;4.75;;;9.10;99.90;;;;;;4972903;28;20043;-78
2022/10/26 02:45:03;;;;;;;8.70;5.00;;;9.10;99.90;;;;;;4990202;28;20409;-78
2022/10/26 02:47:29;;;;;;;9.00;4.47;;;9.10;99.90;;;;;;4992255;28;20429;-79
2022/10/26 02:49:55;;;;;;;6.88;4.20;;;9.10;99.90;;;;;;4991704;28;20047;-78
2022/10/26 02:52:40;;;;;;;9.63;4.88;;;9.10;99.90;;;;;;4983472;28;20042;-78
2022/10/26 02:55:21;;;;;;;9.68;4.50;;;9.00;99.90;;;;;;4988787;28;20068;-78
2022/10/26 02:57:51;;;;;;;12.48;4.60;;;9.00;99.90;;;;;;5007384;28;20043;-78
2022/10/26 03:00:18;;;;;;;11.23;5.03;;;9.00;99.90;;;;;;5006499;28;20134;-78
2022/10/26 03:02:50;;;;;;;11.60;5.78;;;9.10;99.90;;;;;;5007176;28;20113;-78
2022/10/26 03:05:20;;;;;;;10.43;5.90;;;9.00;99.90;;;;;;4975039;28;20042;-81
2022/10/26 03:07:46;;;;;;;11.23;5.90;;;9.10;99.90;;;;;;4989765;28;20043;-81
2022/10/26 03:10:11;;;;;;;11.25;5.60;;;9.10;99.90;;;;;;4974001;28;20501;-81
2022/10/26 03:12:37;;;;;;;13.75;5.38;;;9.10;99.90;;;;;;5023800;28;20086;-81
2022/10/26 03:15:04;;;;;;;13.55;5.72;;;9.10;99.90;;;;;;4961956;28;20051;-81
2022/10/26 03:17:30;;;;;;;10.30;5.93;;;9.10;99.90;;;;;;5003422;28;20202;-81
2022/10/26 03:19:55;;;;;;;13.45;5.38;;;9.10;99.90;;;;;;4997129;28;20148;-81
2022/10/26 03:22:21;;;;;;;11.50;6.15;;;9.00;99.90;;;;;;4995629;28;20054;-81
2022/10/26 03:24:47;;;;;;;14.02;6.63;;;9.00;99.90;;;;;;4993488;28;20093;-81
2022/10/26 03:27:13;;;;;;;14.40;6.25;;;9.10;99.90;;;;;;5011375;28;20490;-81
2022/10/26 03:29:39;;;;;;;12.82;6.57;;;9.10;99.90;;;;;;5002088;28;20062;-81
2022/10/26 03:32:05;;;;;;;12.55;6.18;;;9.10;99.90;;;;;;4958580;28;20047;-81
2022/10/26 03:34:31;;;;;;;12.43;6.18;;;9.20;99.90;;;;;;5006774;28;20038;-81
2022/10/26 03:36:57;;;;;;;17.05;6.95;;;9.20;99.90;;;;;;5007462;28;20170;-79
2022/10/26 03:39:23;;;;;;;12.32;6.50;;;9.30;99.90;;;;;;5007081;28;20049;-79
2022/10/26 03:41:48;;;;;;;10.25;5.45;;;9.40;99.90;;;;;;4973538;28;20034;-78
2022/10/26 03:44:14;;;;;;;11.80;5.47;;;9.20;99.90;;;;;;4974443;28;20074;-78
2022/10/26 03:46:40;;;;;;;14.20;6.18;;;9.20;99.90;;;;;;5007145;28;20049;-78
2022/10/26 03:49:05;;;;;;;9.52;5.20;;;9.30;99.90;;;;;;4957900;28;20481;-78
2022/10/26 03:51:31;;;;;;;10.07;5.25;;;9.20;99.90;;;;;;4970148;28;20050;-78
2022/10/26 03:53:57;;;;;;;12.35;6.10;;;9.20;99.90;;;;;;4954190;29;20046;-78
2022/10/26 03:56:23;;;;;;;10.38;5.65;;;9.20;99.90;;;;;;4955467;29;20175;-79
2022/10/26 03:58:48;;;;;;;11.90;5.95;;;9.20;99.90;;;;;;4974329;28;20397;-78
2022/10/26 04:01:14;;;;;;;11.80;5.03;;;9.20;99.90;;;;;;5005849;28;20049;-78
2022/10/26 04:03:40;;;;;;;12.38;5.65;;;9.20;99.90;;;;;;4962509;28;20042;-78
2022/10/26 04:06:06;;;;;;;8.27;4.88;;;9.20;99.90;;;;;;4955917;28;20040;-78
2022/10/26 04:08:31;;;;;;;13.27;5.68;;;9.20;99.90;;;;;;4973866;28;20104;-78
2022/10/26 04:10:57;;;;;;;12.15;5.82;;;9.30;99.90;;;;;;4957986;28;20050;-81
2022/10/26 04:13:23;;;;;;;9.90;5.30;;;9.30;99.90;;;;;;4972891;28;20042;-81
2022/10/26 04:15:49;;;;;;;10.48;5.30;;;9.40;99.90;;;;;;4957445;28;20116;-81
2022/10/26 04:18:15;;;;;;;11.73;5.53;;;9.40;99.90;;;;;;4969000;28;20054;-81
2022/10/26 04:20:41;;;;;;;11.68;5.47;;;9.40;99.90;;;;;;4951815;28;20042;-81
2022/10/26 04:23:11;;;;;;;13.32;6.22;;;9.50;99.90;;;;;;5005161;28;20039;-81
2022/10/26 04:25:37;;;;;;;11.07;6.90;;;9.50;99.90;;;;;;5005567;28;20125;-81
2022/10/26 04:28:04;;;;;;;9.85;5.93;;;9.60;99.90;;;;;;4989935;28;20489;-80
2022/10/26 04:30:31;;;;;;;10.30;5.55;;;9.60;99.90;;;;;;4973611;28;20489;-81
2022/10/26 04:32:57;;;;;;;12.05;5.28;;;9.60;99.90;;;;;;5013260;28;20038;-81
2022/10/26 04:35:23;;;;;;;16.08;6.63;;;9.60;99.90;;;;;;4981000;28;20535;-81
2022/10/26 04:37:48;;;;;;;15.85;7.05;;;9.70;99.90;;;;;;4969111;28;20042;-81
2022/10/26 04:40:14;;;;;;;10.98;5.15;;;9.70;99.90;;;;;;4992570;28;20074;-81
2022/10/26 04:42:45;;;;;;;14.02;5.95;;;9.70;99.90;;;;;;5027485;23;20066;-78
2022/10/26 04:45:12;;;;;;;12.55;6.68;;;9.70;99.90;;;;;;5092354;28;20473;-78
2022/10/26 04:47:38;;;;;;;11.52;5.57;;;9.70;99.90;;;;;;5090072;28;20516;-78
2022/10/26 04:50:05;;;;;;;11.10;5.70;;;9.80;99.90;;;;;;5079139;28;20071;-78
2022/10/26 04:52:31;;;;;;;11.40;5.40;;;9.80;99.90;;;;;;5053174;28;20127;-79
2022/10/26 04:54:57;;;;;;;9.55;5.03;;;9.80;99.90;;;;;;5112229;28;20553;-79
2022/10/26 04:57:22;;;;;;;12.48;5.82;;;9.80;99.90;;;;;;5091752;28;20054;-79
2022/10/26 04:59:48;;;;;;;10.20;5.53;;;9.80;99.90;;;;;;5088861;28;20501;-81
2022/10/26 05:02:14;;;;;;;8.57;4.75;;;9.90;99.90;;;;;;5070671;28;20079;-81
2022/10/26 05:04:39;;;;;;;9.23;5.32;;;9.80;99.90;;;;;;5071711;28;20078;-81
2022/10/26 05:07:05;;;;;;;12.63;5.90;;;9.80;99.90;;;;;;5066203;28;20432;-81
2022/10/26 05:09:31;;;;;;;14.95;6.60;;;9.90;99.90;;;;;;5074669;28;20073;-81
2022/10/26 05:11:57;;;;;;;11.23;5.70;;;9.90;99.90;;;;;;5058913;28;20032;-81
2022/10/26 05:14:22;;;;;;;11.32;5.78;;;9.90;99.90;;;;;;5071641;28;20390;-81
2022/10/26 05:16:50;;;;;;;11.23;5.70;;;10.00;99.90;;;;;;5091272;28;20035;-78
2022/10/26 05:19:15;;;;;;;14.85;5.82;;;10.00;99.90;;;;;;5073702;28;20178;-77
2022/10/26 05:21:42;;;;;;;10.98;5.68;;;10.00;99.90;;;;;;5066380;28;20500;-77
2022/10/26 05:24:07;;;;;;;10.00;5.63;;;10.00;99.90;;;;;;5074122;28;20090;-77
2022/10/26 05:26:33;;;;;;;10.90;5.35;;;10.10;99.90;;;;;;5075201;28;20128;-78
2022/10/26 05:28:59;;;;;;;11.13;5.97;;;10.00;99.90;;;;;;5092020;28;20101;-77
2022/10/26 05:31:25;;;;;;;14.27;6.80;;;10.10;99.90;;;;;;5088430;28;20048;-77
2022/10/26 05:33:51;;;;;;;14.13;5.75;;;10.10;99.90;;;;;;5073790;28;20510;-79
2022/10/26 05:36:17;;;;;;;10.05;5.55;;;10.20;99.90;;;;;;5058427;28;20441;-79
2022/10/26 05:38:44;;;;;;;11.10;5.72;;;10.20;99.90;;;;;;5057348;28;20041;-79
2022/10/26 05:41:09;;;;;;;9.52;5.30;;;10.20;99.90;;;;;;5074181;28;20093;-79
2022/10/26 05:43:35;;;;;;;11.30;5.82;;;10.20;99.90;;;;;;5080876;28;20053;-79
2022/10/26 05:46:01;;;;;;;11.45;5.57;;;10.30;99.90;;;;;;5088699;28;20052;-79
2022/10/26 05:48:26;;;;;;;11.23;5.60;;;10.30;99.90;;;;;;5040757;28;20044;-79
2022/10/26 05:50:53;;;;;;;9.32;5.20;;;10.40;99.90;;;;;;5102843;28;20048;-81
2022/10/26 05:53:19;;;;;;;10.18;5.28;;;10.40;99.90;;;;;;5072978;28;20101;-80
2022/10/26 05:55:45;;;;;;;10.13;5.63;;;10.40;99.90;;;;;;5074111;28;20412;-81
2022/10/26 05:58:13;;;;;;;14.18;5.80;;;10.40;99.90;;;;;;5051381;28;20036;-81
2022/10/26 06:01:06;;;;;;;10.75;5.30;;;10.50;99.90;;;;;;5075550;28;20049;-80
2022/10/26 06:04:16;;;;;;;11.00;6.25;;;10.40;99.90;;;;;;5088541;28;20045;-81
2022/10/26 06:06:44;;;;;;;10.75;5.75;;;10.50;99.90;;;;;;5051425;28;20084;-80
2022/10/26 06:09:11;;;;;;;15.23;5.97;;;10.50;99.90;;;;;;5074419;28;20071;-80
2022/10/26 06:11:37;;;;;;;11.77;6.03;;;10.50;99.90;;;;;;5073054;28;20047;-80
2022/10/26 06:14:03;;;;;;;8.65;5.05;;;10.60;99.90;;;;;;5087187;28;20045;-80
2022/10/26 06:16:49;;;;;;;10.63;5.65;;;10.60;99.90;;;;;;5039103;28;20037;-80
2022/10/26 06:19:33;;;;;;;10.15;5.10;;;10.60;99.90;;;;;;5079328;28;20077;-80
2022/10/26 06:22:31;;;;;;;12.70;5.40;;;10.70;99.90;;;;;;5071339;28;20051;-80
2022/10/26 06:25:34;;;;;;;9.57;5.20;;;10.70;99.90;;;;;;5076052;28;20482;-81
2022/10/26 06:28:31;;;;;;;13.20;5.57;;;10.70;99.90;;;;;;5082667;28;20079;-80
2022/10/26 06:30:57;;;;;;;12.73;5.40;;;10.70;99.90;;;;;;5068800;28;20547;-80
2022/10/26 06:33:24;;;;;;;8.30;5.20;;;10.80;99.90;;;;;;5085282;28;20067;-81
2022/10/26 06:36:12;;;;;;;11.55;5.90;;;10.80;99.90;;;;;;5055608;28;20102;-80
2022/10/26 06:38:40;;;;;;;10.73;5.30;;;10.80;99.90;;;;;;5079126;28;20032;-80
2022/10/26 06:41:06;;;;;;;8.32;4.60;;;11.50;99.90;;;;;;5093610;28;20388;-80
2022/10/26 06:43:34;;;;;;;9.75;4.82;;;10.80;99.90;;;;;;5082273;28;20536;-80
2022/10/26 06:46:21;;;;;;;10.45;4.88;;;10.80;99.90;;;;;;5072839;28;20048;-80
2022/10/26 06:49:11;;;;;;;10.55;5.10;;;10.80;99.90;;;;;;5056460;28;20043;-80
2022/10/26 06:52:01;;;;;;;12.38;5.43;;;10.80;99.90;;;;;;5052658;28;20048;-81
2022/10/26 06:54:47;;;;;;;12.70;5.15;;;10.80;99.90;;;;;;5075991;28;20168;-81
2022/10/26 06:57:15;;;;;;;7.55;4.43;;;10.80;99.90;;;;;;5093605;28;20050;-77
2022/10/26 06:59:43;;;;;;;8.55;4.53;;;10.80;99.90;;;;;;5075571;28;20044;-77
2022/10/26 07:02:11;;;;;;;10.00;4.85;;;10.80;99.90;;;;;;5087257;28;20047;-77
2022/10/26 07:04:36;;;;;;;6.78;4.07;;;10.80;99.90;;;;;;5075982;28;20036;-77
2022/10/26 07:07:03;;;;;;;6.82;3.95;;;10.90;99.90;;;;;;5073486;28;20040;-77
2022/10/26 07:09:28;;;;;;;8.02;3.92;;;10.90;99.90;;;;;;5068293;28;20072;-77
2022/10/26 07:11:54;;;;;;;10.07;5.18;;;11.00;99.90;;;;;;5093165;28;20094;-77
2022/10/26 07:14:20;;;;;;;12.10;5.00;;;11.00;99.90;;;;;;5087124;28;20064;-78
2022/10/26 07:16:45;;;;;;;11.35;5.15;;;11.20;99.90;;;;;;5076160;28;20032;-79
2022/10/26 07:19:11;;;;;;;8.95;4.50;;;11.20;99.90;;;;;;5088250;28;20036;-79
2022/10/26 07:21:37;;;;;;;11.45;4.78;;;11.30;99.90;;;;;;5056340;28;20394;-79
2022/10/26 07:24:02;;;;;;;11.30;4.90;;;11.30;99.90;;;;;;5059590;28;20051;-79
2022/10/26 07:26:28;;;;;;;12.65;4.30;;;11.40;99.90;;;;;;5075537;28;20534;-79
2022/10/26 07:28:54;;;;;;;8.20;4.53;;;11.50;99.90;;;;;;5088031;28;20036;-79
2022/10/26 07:31:19;;;;;;;8.35;4.15;;;11.50;99.90;;;;;;5084255;28;20036;-79
2022/10/26 07:33:45;;;;;;;9.57;4.45;;;11.60;99.90;;;;;;5044908;28;20482;-79
2022/10/26 07:36:11;;;;;;;12.35;4.68;;;11.70;99.90;;;;;;5076292;28;20039;-79
2022/10/26 07:38:37;;;;;;;8.55;4.97;;;11.70;99.90;;;;;;5073887;28;20077;-79
2022/10/26 07:41:05;;;;;;;8.10;4.60;;;11.80;99.90;;;;;;5091495;28;20058;-79
2022/10/26 07:43:30;;;;;;;11.73;4.80;;;11.90;99.90;;;;;;5075419;28;20508;-79
2022/10/26 07:45:56;;;;;;;5.55;3.42;;;11.90;99.90;;;;;;5072537;28;20052;-79
2022/10/26 07:48:22;;;;;;;6.43;3.50;;;12.20;99.90;;;;;;5057071;28;20269;-81
2022/10/26 07:50:48;;;;;;;11.98;4.03;;;12.20;99.90;;;;;;5093802;28;20086;-82
2022/10/26 07:53:14;;;;;;;9.60;4.10;;;12.20;99.90;;;;;;5088623;28;20108;-82
2022/10/26 07:55:39;;;;;;;10.77;3.83;;;12.40;99.90;;;;;;5074733;28;20040;-82
2022/10/26 07:58:05;;;;;;;7.13;3.67;;;12.40;99.90;;;;;;5069413;28;20064;-82
2022/10/26 08:00:32;;;;;;;7.10;3.60;;;12.70;99.90;;;;;;5049031;28;20044;-81
2022/10/26 08:02:58;;;;;;;9.40;3.90;;;13.00;99.90;;;;;;5078440;28;20098;-82
2022/10/26 08:05:23;;;;;;;7.72;3.45;;;13.20;99.90;;;;;;5056826;28;20083;-77
2022/10/26 08:07:49;;;;;;;6.78;3.13;;;13.90;99.90;;;;;;5071959;28;20048;-77
2022/10/26 08:10:15;;;;;;;10.13;3.70;;;13.80;99.90;;;;;;5091302;28;20040;-77
2022/10/26 08:12:42;;;;;;;5.63;3.08;;;15.20;99.90;;;;;;5086787;28;20043;-77
2022/10/26 08:15:09;;;;;;;8.13;3.40;;;15.70;99.90;;;;;;5075372;28;20453;-77
2022/10/26 08:17:34;;;;;;;9.20;2.95;;;16.40;99.90;;;;;;5090242;28;20448;-77
2022/10/26 08:20:00;;;;;;;6.10;3.60;;;;;;;;;;5074509;28;20040;-77
2022/10/26 08:22:29;;;;;;;6.45;2.83;;;;;;;;;;5091621;28;20036;-78
2022/10/26 08:24:55;;;;;;;5.05;2.65;;;19.00;99.90;;;;;;5087076;28;20044;-77
2022/10/26 08:27:20;;;;;;;6.25;2.50;;;19.10;99.90;;;;;;5089273;28;20054;-78
2022/10/26 08:29:46;;;;;;;4.47;2.30;;;20.00;99.90;;;;;;5074893;28;20051;-78
2022/10/26 08:32:12;;;;;;;3.97;2.10;;;20.50;99.90;;;;;;5088903;28;20076;-78
2022/10/26 08:34:38;;;;;;;4.55;1.85;;;22.10;99.90;;;;;;5092070;28;20040;-78
2022/10/26 08:37:03;;;;;;;5.10;2.10;;;22.20;99.90;;;;;;5090601;28;20051;-81
2022/10/26 08:39:29;;;;;;;3.75;1.88;;;;;;;;;;5091918;28;20119;-81
2022/10/26 08:42:09;;;;;;;4.32;1.92;;;23.20;99.90;;;;;;5091812;28;20165;-81
2022/10/26 08:44:41;;;;;;;2.97;1.95;;;23.10;99.90;;;;;;5091680;28;20048;-81
2022/10/26 08:47:18;;;;;;;4.93;1.88;;;23.40;99.90;;;;;;5073470;28;20037;-81
2022/10/26 08:49:52;;;;;;;3.75;2.17;;;23.80;99.90;;;;;;5096281;28;20168;-81
2022/10/26 08:52:25;;;;;;;2.55;1.58;;;24.40;98.10;;;;;;5116143;28;20032;-81
2022/10/26 08:54:55;;;;;;;5.20;1.98;;;24.10;97.20;;;;;;5098620;28;20039;-82
2022/10/26 08:57:29;;;;;;;4.75;1.70;;;24.00;97.80;;;;;;5076078;28;20038;-82
2022/10/26 08:59:57;;;;;;;8.57;2.03;;;;;;;;;;5090028;28;20086;-82
2022/10/26 09:02:23;;;;;;;2.85;1.80;;;24.10;96.80;;;;;;5096478;28;20428;-82
2022/10/26 09:04:51;;;;;;;2.97;1.52;;;23.70;95.20;;;;;;5095786;28;20044;-83
2022/10/26 09:07:17;;;;;;;2.22;1.30;;;;;;;;;;5079616;28;20093;-82
2022/10/26 09:09:43;;;;;;;3.45;1.63;;;;;;;;;;5096231;28;20047;-82
2022/10/26 09:12:15;;;;;;;1.90;1.20;;;;;;;;;;5078881;28;20128;-82
2022/10/26 09:14:44;;;;;;;4.70;2.80;;;;;;;;;;5079295;28;20040;-82
2022/10/26 09:17:14;;;;;;;3.40;1.50;;;;;;;;;;5078780;28;20036;-83
2022/10/26 09:19:40;;;;;;;5.03;1.60;;;;;;;;;;5095189;28;20103;-82
2022/10/26 09:22:18;;;;;;;7.43;1.92;;;;;;;;;;5084996;28;20544;-82
2022/10/26 09:24:52;;;;;;;9.75;1.80;;;25.70;92.80;;;;;;5095963;28;20062;-84
2022/10/26 09:27:29;;;;;;;11.00;1.98;;;24.70;93.00;;;;;;5078985;28;20036;-82
2022/10/26 09:29:57;;;;;;;3.42;1.58;;;23.30;93.70;;;;;;5093647;28;20497;-82
2022/10/26 09:32:31;;;;;;;6.55;1.88;;;;;;;;;;5095161;28;20044;-82
2022/10/26 09:35:01;;;;;;;5.53;2.28;;;;;;;;;;5078532;28;20071;-81
2022/10/26 09:37:29;;;;;;;8.35;2.92;;;;;;;;;;5078743;28;20040;-82
2022/10/26 09:40:17;;;;;;;3.78;2.28;;;;;;;;;;5095594;28;20028;-83
2022/10/26 09:42:59;;;;;;;3.70;2.00;;;23.80;95.90;;;;;;5077810;28;20139;-82
2022/10/26 09:45:36;;;;;;;2.03;1.45;;;23.80;96.60;;;;;;5094967;28;20044;-81
2022/10/26 09:48:10;;;;;;;5.10;1.55;;;;;;;;;;5094779;28;20044;-82
2022/10/26 09:50:38;;;;;;;1.33;1.17;;;;;;;;;;5077155;28;20044;-82
2022/10/26 09:53:04;;;;;;;3.00;1.92;;;;;;;;;;5076318;28;20040;-81
2022/10/26 09:55:31;;;;;;;3.42;1.60;;;;;;;;;;5077288;28;20044;-81
2022/10/26 09:58:00;;;;;;;8.55;1.73;;;;;;;;;;5093225;28;20079;-81
2022/10/26 10:00:27;;;;;;;1.83;1.23;;;;;;;;;;5094423;28;20051;-81
2022/10/26 10:02:57;;;;;;;5.00;1.83;;;;;;;;;;5075032;28;20498;-81
2022/10/26 10:05:30;;;;;;;7.78;1.85;;;25.20;92.80;;;;;;5090476;28;20075;-81
2022/10/26 10:08:22;;;;;;;3.95;1.60;;;24.80;93.70;;;;;;5092979;28;20100;-81
2022/10/26 10:11:03;;;;;;;3.33;1.40;;;24.20;95.30;;;;;;5074831;28;20036;-81
2022/10/26 10:13:31;;;;;;;2.90;1.20;;;22.90;96.60;;;;;;5083434;28;20048;-81
2022/10/26 10:16:13;;;;;;;2.75;1.80;;;22.80;96.70;;;;;;5105706;28;20367;-81
2022/10/26 10:18:39;;;;;;;2.47;1.23;;;;;;;;;;5086474;28;20052;-80
2022/10/26 10:21:06;;;;;;;2.60;1.55;;;21.50;99.20;;;;;;5090904;28;20032;-79
2022/10/26 10:23:35;;;;;;;3.33;1.75;;;21.20;99.90;;;;;;5063126;28;20119;-80
2022/10/26 10:26:10;;;;;;;3.28;1.77;;;20.80;99.90;;;;;;5093991;28;20043;-80
2022/10/26 10:28:36;;;;;;;3.78;1.50;;;21.00;99.90;;;;;;5093183;28;20092;-80
2022/10/26 10:31:05;;;;;;;2.75;1.40;;;21.00;99.90;;;;;;5093465;28;20079;-80
2022/10/26 10:33:33;;;;;;;3.47;1.77;;;21.00;99.90;;;;;;5093851;28;20043;-80
2022/10/26 10:36:00;;;;;;;3.13;1.42;;;20.80;99.90;;;;;;5076735;28;20036;-80
2022/10/26 10:38:26;;;;;;;2.17;1.20;;;20.90;99.90;;;;;;5094075;28;20036;-80
2022/10/26 10:40:58;;;;;;;2.85;1.63;;;21.30;99.90;;;;;;5094576;28;20493;-80
2022/10/26 10:43:25;;;;;;;2.15;1.10;;;21.30;99.90;;;;;;5060001;28;20056;-80
2022/10/26 10:45:56;;;;;;;3.03;1.52;;;21.20;99.90;;;;;;5059779;28;20032;-80
2022/10/26 10:48:27;;;;;;;4.65;1.77;;;21.20;99.90;;;;;;5092861;28;20044;-80
2022/10/26 10:51:09;;;;;;;6.32;1.80;;;21.00;99.90;;;;;;5094346;28;20043;-80
2022/10/26 10:53:55;;;;;;;4.00;1.48;;;21.00;99.90;;;;;;5073673;28;20041;-80
2022/10/26 10:56:47;;;;;;;3.85;1.58;;;21.10;99.90;;;;;;5072062;28;20039;-80
2022/10/26 10:59:51;;;;;;;4.25;1.35;;;21.60;99.90;;;;;;5076877;28;20048;-80
2022/10/26 11:02:44;;;;;;;3.42;1.60;;;22.20;99.90;;;;;;4976448;28;20451;-80
2022/10/26 11:05:36;;;;;;;1.73;1.08;;;;;;;;;;5089416;28;20040;-80
2022/10/26 11:08:09;;;;;;;4.47;1.63;;;;;;;;;;5090055;28;20047;-81
2022/10/26 11:10:40;;;;;;;7.78;1.30;;;;;;;;;;5076830;28;20036;-82
2022/10/26 11:13:17;;;;;;;2.50;1.17;;;;;;;;;;5075996;28;20059;-82
2022/10/26 11:15:45;;;;;;;4.47;1.38;;;23.30;99.30;;;;;;5091509;28;20067;-81
2022/10/26 11:18:25;;;;;;;2.97;1.35;;;23.30;99.90;;;;;;5092550;28;20546;-82
2022/10/26 11:20:59;;;;;;;2.63;1.13;;;22.80;99.90;;;;;;5093072;28;20040;-82
2022/10/26 11:23:35;;;;;;;2.70;1.38;;;22.50;99.90;;;;;;5075468;28;20044;-82
2022/10/26 11:26:28;;;;;;;5.13;1.40;;;22.30;99.90;;;;;;5073807;28;20047;-83
2022/10/26 11:29:04;;;;;;;3.67;1.52;;;22.10;99.90;;;;;;5091873;28;20055;-83
2022/10/26 11:31:41;;;;;;;1.50;0.95;;;21.80;99.90;;;;;;5092651;28;20043;-83
2022/10/26 11:34:34;;;;;;;2.78;1.40;;;21.50;99.90;;;;;;5075826;28;20093;-83
2022/10/26 11:37:11;;;;;;;3.10;1.38;;;21.10;99.90;;;;;;5084306;28;20031;-82
2022/10/26 11:40:01;;;;;;;2.92;1.42;;;20.90;99.90;;;;;;5079316;28;20097;-81
2022/10/26 11:42:37;;;;;;;6.90;1.60;;;20.60;99.90;;;;;;5089206;28;20039;-81
2022/10/26 11:45:18;;;;;;;7.05;1.65;;;20.60;99.90;;;;;;5090455;28;20048;-81
2022/10/26 11:48:23;;;;;;;5.57;2.15;;;20.40;99.90;;;;;;5089549;28;20040;-81
2022/10/26 11:50:58;;;;;;;1.80;1.30;;;20.30;99.90;;;;;;5090651;28;20043;-81
2022/10/26 11:53:30;;;;;;;3.13;1.95;;;20.20;99.90;;;;;;5074039;28;20174;-81
2022/10/26 11:55:58;;;;;;;4.13;1.80;;;20.10;99.90;;;;;;5091192;28;20043;-81
2022/10/26 11:58:25;;;;;;;3.47;1.77;;;19.90;99.90;;;;;;5091108;28;20062;-83
2022/10/26 12:01:00;;;;;;;3.65;1.73;;;19.80;99.90;;;;;;5089619;28;20039;-83
2022/10/26 12:03:31;;;;;;;3.60;2.00;;;19.80;99.90;;;;;;5091710;28;20135;-83
2022/10/26 12:05:56;;;;;;;2.78;1.60;;;19.70;99.90;;;;;;5091746;28;20043;-83
2022/10/26 12:08:39;;;;;;;7.47;2.28;;;19.70;99.90;;;;;;5072534;28;20036;-83
2022/10/26 12:11:41;;;;;;;4.47;2.10;;;19.70;99.90;;;;;;5075165;28;20043;-84
2022/10/26 12:14:28;;;;;;;4.20;1.90;;;19.60;99.90;;;;;;5092023;28;20040;-83
2022/10/26 12:17:08;;;;;;;6.30;2.13;;;19.50;99.90;;;;;;5062772;28;20565;-83
2022/10/26 12:19:52;;;;;;;2.95;1.70;;;19.30;99.90;;;;;;5074972;28;20504;-82
2022/10/26 12:22:20;;;;;;;6.07;2.20;;;19.20;99.90;;;;;;5091466;28;20035;-82
2022/10/26 12:25:05;;;;;;;4.80;2.55;;;19.10;99.90;;;;;;5075590;28;20032;-82
2022/10/26 12:27:49;;;;;;;3.70;2.10;;;19.00;99.90;;;;;;5096358;28;20044;-82
2022/10/26 12:30:18;;;;;;;4.28;2.33;;;18.90;99.90;;;;;;5096375;28;20036;-81
2022/10/26 12:32:43;;;;;;;4.25;2.33;;;19.00;99.90;;;;;;5097115;28;20043;-81
2022/10/26 12:35:30;;;;;;;9.70;2.33;;;18.90;99.90;;;;;;5072091;28;20363;-81
2022/10/26 12:37:56;;;;;;;7.13;2.17;;;19.00;99.90;;;;;;5077404;28;20032;-81
2022/10/26 12:40:31;;;;;;;6.32;2.67;;;19.10;99.90;;;;;;5088235;28;20028;-81
2022/10/26 12:43:17;;;;;;;4.22;2.53;;;19.10;99.90;;;;;;5090205;28;20090;-81
2022/10/26 12:46:12;;;;;;;7.95;2.65;;;19.00;99.90;;;;;;5071810;28;20066;-81
2022/10/26 12:48:49;;;;;;;5.53;2.75;;;18.90;99.90;;;;;;5076034;28;20441;-81
2022/10/26 12:51:21;;;;;;;6.43;2.08;;;18.90;99.90;;;;;;5095338;28;20101;-81
2022/10/26 12:54:28;;;;;;;7.13;3.13;;;19.10;99.90;;;;;;5094682;28;20032;-81
2022/10/26 12:57:21;;;;;;;4.50;2.35;;;19.10;99.90;;;;;;5095016;28;20055;-82
2022/10/26 12:59:59;;;;;;;3.97;2.00;;;19.10;99.90;;;;;;5094522;28;20481;-82
2022/10/26 13:02:43;;;;;;;5.07;2.70;;;19.20;99.90;;;;;;5098012;28;20067;-82
2022/10/26 13:05:40;;;;;;;6.38;2.55;;;19.50;99.90;;;;;;5072341;28;20478;-82
2022/10/26 13:08:08;;;;;;;9.20;2.60;;;19.60;99.90;;;;;;5090986;28;20078;-82
2022/10/26 13:10:37;;;;;;;6.18;2.25;;;19.60;99.90;;;;;;5089033;28;20079;-82
2022/10/26 13:13:06;;;;;;;3.42;2.13;;;19.40;99.90;;;;;;5078332;28;20043;-82
2022/10/26 13:15:56;;;;;;;5.78;2.40;;;19.40;99.90;;;;;;5082765;28;20040;-82
2022/10/26 13:18:22;;;;;;;5.40;2.72;;;19.40;99.90;;;;;;5083144;28;20052;-81